River Hills, Wisconsin
Current Conditions -  °F | °C
As of 9:45 AM on Monday 22 Dec 2014 (Local Time) from KMWC Reporting Station
Haze Haze  
Wind Chill: 28°   Ceiling: 4200
Heat Index: 36°   Visibility: 5mi
Dew Point: 30°   Wind: 10mph
Humidity: 81%   Direction: 120°ESE
Pressure: 29.9"   Gusts: NA
Location:  43.1576°N, 87.9144°W
Report Text: KMWC 221545Z AUTO 12009KT 5SM HZ SCT011 BKN042 OVC075 02/M01 A2990
Loading
Personal Weather Stations






























Interactive Weather Map New forecast layout! Learn more

10-Day Weather Forecast

Advertisements
Track Severe Weather on mobile